Time;durP1;ratioP1;P1;durP2;ratioP2;P2;SDS_P1;SDS_P2;PMS_P1;PMS_P2;Temp;Humidity;BMP_temperature;BMP_pressure;BME280_temperature;BME280_humidity;BME280_pressure;Samples;Min_cycle;Max_cycle;Signal;HPM_P1;HPM_P2
2023/12/14 00:01:35;;;;;;;6.60;4.23;;;;;;;;;;5066377;28;20531;-80
2023/12/14 00:04:04;;;;;;;6.30;3.30;;;;;;;;;;5063807;28;20459;-80
2023/12/14 00:06:32;;;;;;;6.93;3.97;;;;;;;;;;5067047;28;20491;-79
2023/12/14 00:08:59;;;;;;;6.30;3.67;;;;;;;;;;5065288;28;20506;-79
2023/12/14 00:11:26;;;;;;;7.60;3.70;;;;;;;;;;5066242;28;20456;-79
2023/12/14 00:13:55;;;;;;;6.53;3.70;;;;;;;;;;5065575;28;20552;-80
2023/12/14 00:16:23;;;;;;;5.83;3.27;;;;;;;;;;5066629;28;20482;-80
2023/12/14 00:18:50;;;;;;;6.00;3.40;;;;;;;;;;5065609;28;20465;-80
2023/12/14 00:21:18;;;;;;;5.70;3.50;;;;;;;;;;5067322;28;20441;-78
2023/12/14 00:23:45;;;;;;;7.33;3.83;;;;;;;;;;5063728;28;20461;-78
2023/12/14 00:26:13;;;;;;;7.27;4.20;;;;;;;;;;5066802;28;20492;-80
2023/12/14 00:28:40;;;;;;;5.87;3.53;;;;;;;;;;5064584;28;20448;-80
2023/12/14 00:31:09;;;;;;;5.90;3.03;;;;;;;;;;5067323;28;20460;-81
2023/12/14 00:33:36;;;;;;;7.17;3.30;;;;;;;;;;5065771;28;20742;-79
2023/12/14 00:36:04;;;;;;;6.20;3.10;;;;;;;;;;5063399;28;20462;-80
2023/12/14 00:38:31;;;;;;;4.50;2.90;;;;;;;;;;5067315;28;20456;-80
2023/12/14 00:40:59;;;;;;;8.67;4.33;;;;;;;;;;5066511;28;20477;-80
2023/12/14 00:43:26;;;;;;;8.30;3.60;;;;;;;;;;5065839;28;20474;-80
2023/12/14 00:45:54;;;;;;;7.00;2.93;;;;;;;;;;5065162;28;20503;-79
2023/12/14 00:48:23;;;;;;;5.57;3.60;;;;;;;;;;5064709;28;20480;-79
2023/12/14 00:50:50;;;;;;;5.70;2.70;;;;;;;;;;5065783;28;20552;-78
2023/12/14 00:53:19;;;;;;;7.47;3.57;;;;;;;;;;5064027;28;20448;-80
2023/12/14 00:55:49;;;;;;;7.53;3.50;;;;;;;;;;5065136;28;20466;-79
2023/12/14 00:58:19;;;;;;;5.87;3.27;;;;;;;;;;5050880;28;20467;-80
2023/12/14 01:00:47;;;;;;;6.50;3.60;;;;;;;;;;5066572;28;20531;-80
2023/12/14 01:03:14;;;;;;;5.27;2.60;;;;;;;;;;5064553;28;20445;-81
2023/12/14 01:05:43;;;;;;;5.97;3.70;;;;;;;;;;5066152;28;20435;-79
2023/12/14 01:08:10;;;;;;;6.40;2.70;;;;;;;;;;5064535;28;20559;-81
2023/12/14 01:10:38;;;;;;;5.80;3.20;;;;;;;;;;5065394;28;20488;-79
2023/12/14 01:13:05;;;;;;;6.07;3.70;;;;;;;;;;5064186;28;20487;-80
2023/12/14 01:15:33;;;;;;;6.27;2.97;;;;;;;;;;5066699;28;20499;-81
2023/12/14 01:18:00;;;;;;;6.90;3.20;;;;;;;;;;5066980;28;20474;-80
2023/12/14 01:20:27;;;;;;;6.67;4.10;;;;;;;;;;5070359;28;20471;-80
2023/12/14 01:22:56;;;;;;;5.40;2.43;;;;;;;;;;5070560;28;20527;-79
2023/12/14 01:25:24;;;;;;;9.23;3.87;;;;;;;;;;5071583;28;20464;-80
2023/12/14 01:27:52;;;;;;;13.03;5.13;;;;;;;;;;5068999;28;20841;-80
2023/12/14 01:30:19;;;;;;;8.40;3.20;;;;;;;;;;5071583;28;20458;-80
2023/12/14 01:32:47;;;;;;;7.77;3.17;;;;;;;;;;5071251;28;20448;-79
2023/12/14 01:35:14;;;;;;;6.20;3.33;;;;;;;;;;5071743;28;20461;-80
2023/12/14 01:37:41;;;;;;;5.33;2.80;;;;;;;;;;5072766;28;20486;-80
2023/12/14 01:40:11;;;;;;;5.87;2.80;;;;;;;;;;5068311;28;20874;-80
2023/12/14 01:42:38;;;;;;;6.53;3.20;;;;;;;;;;5066722;28;20448;-80
2023/12/14 01:45:09;;;;;;;5.43;2.70;;;;;;;;;;5067254;28;20475;-80
2023/12/14 01:47:37;;;;;;;5.83;2.20;;;;;;;;;;5068230;28;20503;-80
2023/12/14 01:50:08;;;;;;;7.93;2.80;;;;;;;;;;5067417;28;20476;-79
2023/12/14 01:52:35;;;;;;;4.70;3.10;;;;;;;;;;5066510;28;20490;-81
2023/12/14 01:55:03;;;;;;;5.03;2.97;;;;;;;;;;5066927;28;20909;-80
2023/12/14 01:57:32;;;;;;;4.70;2.57;;;;;;;;;;5067036;28;20488;-80
2023/12/14 01:59:59;;;;;;;11.20;3.07;;;;;;;;;;5068697;28;20466;-80
2023/12/14 02:02:26;;;;;;;5.23;2.77;;;;;;;;;;5068791;28;20558;-80
2023/12/14 02:04:54;;;;;;;5.77;3.40;;;;;;;;;;5069581;28;20487;-80
2023/12/14 02:07:21;;;;;;;7.30;2.90;;;;;;;;;;5066127;28;20487;-80
2023/12/14 02:09:50;;;;;;;5.00;2.33;;;;;;;;;;5069888;28;20470;-82
2023/12/14 02:12:17;;;;;;;8.40;3.00;;;;;;;;;;5070785;28;20504;-79
2023/12/14 02:14:46;;;;;;;4.73;2.47;;;;;;;;;;5071464;28;20476;-80
2023/12/14 02:17:14;;;;;;;7.37;2.90;;;;;;;;;;5072084;28;20544;-78
2023/12/14 02:19:41;;;;;;;4.40;2.43;;;;;;;;;;5070269;28;20531;-79
2023/12/14 02:22:09;;;;;;;6.17;2.60;;;;;;;;;;5071562;28;20475;-79
2023/12/14 02:24:37;;;;;;;6.73;3.67;;;;;;;;;;5070373;28;20484;-80
2023/12/14 02:27:05;;;;;;;7.57;3.03;;;;;;;;;;5071165;28;20487;-79
2023/12/14 02:29:32;;;;;;;5.30;3.10;;;;;;;;;;5070772;28;20544;-81
2023/12/14 02:32:00;;;;;;;4.80;2.50;;;;;;;;;;5070137;28;20478;-80
2023/12/14 02:34:27;;;;;;;6.90;2.90;;;;;;;;;;5068085;28;20780;-80
2023/12/14 02:36:54;;;;;;;5.40;3.30;;;;;;;;;;5067524;28;20467;-81
2023/12/14 02:39:21;;;;;;;4.50;2.77;;;;;;;;;;5068378;28;20508;-78
2023/12/14 02:41:51;;;;;;;5.40;2.60;;;;;;;;;;5066424;28;20456;-80
2023/12/14 02:44:18;;;;;;;6.27;3.00;;;;;;;;;;5068353;28;20454;-80
2023/12/14 02:46:45;;;;;;;6.03;2.40;;;;;;;;;;5066298;28;20488;-80
2023/12/14 02:49:13;;;;;;;5.30;2.70;;;;;;;;;;5065369;28;20515;-81
2023/12/14 02:51:40;;;;;;;4.73;2.53;;;;;;;;;;5068144;28;20486;-80
2023/12/14 02:54:08;;;;;;;5.90;2.40;;;;;;;;;;5066102;28;20877;-80
2023/12/14 02:56:39;;;;;;;4.77;2.37;;;;;;;;;;5069079;28;20449;-78
2023/12/14 02:59:08;;;;;;;4.70;2.30;;;;;;;;;;5068999;28;20442;-79
2023/12/14 03:01:35;;;;;;;3.60;1.80;;;;;;;;;;5067528;28;20461;-79
2023/12/14 03:04:02;;;;;;;4.87;2.50;;;;;;;;;;5062871;28;20940;-78
2023/12/14 03:06:30;;;;;;;5.10;2.80;;;;;;;;;;5067577;28;20503;-78
2023/12/14 03:08:57;;;;;;;5.10;2.60;;;;;;;;;;5068272;28;20486;-78
2023/12/14 03:11:31;;;;;;;4.30;2.17;;;;;;;;;;5064313;28;20457;-80
2023/12/14 03:16:53;;;;;;;6.67;2.73;;;;;;;;;;5066816;28;20431;-79
2023/12/14 03:19:21;;;;;;;5.10;2.80;;;;;;;;;;5066684;28;20455;-80
2023/12/14 03:21:48;;;;;;;4.77;2.60;;;;;;;;;;5069378;28;20474;-80
2023/12/14 03:24:16;;;;;;;6.80;2.80;;;;;;;;;;5068740;28;20484;-80
2023/12/14 03:26:47;;;;;;;5.43;2.23;;;;;;;;;;5068598;28;20591;-79
2023/12/14 03:29:14;;;;;;;5.20;2.30;;;;;;;;;;5070009;28;20891;-79
2023/12/14 03:31:42;;;;;;;4.80;3.23;;;;;;;;;;5067680;28;20457;-80
2023/12/14 03:34:10;;;;;;;4.87;2.30;;;;;;;;;;5067954;28;20472;-80
2023/12/14 03:36:38;;;;;;;4.30;1.97;;;;;;;;;;5066664;28;20446;-79
2023/12/14 03:39:05;;;;;;;5.17;2.17;;;;;;;;;;5065044;28;20492;-80
2023/12/14 03:41:33;;;;;;;3.37;1.93;;;;;;;;;;5065033;28;20522;-79
2023/12/14 03:44:00;;;;;;;3.30;1.77;;;;;;;;;;5065211;28;20506;-80
2023/12/14 03:46:28;;;;;;;3.70;2.00;;;;;;;;;;5062333;28;20461;-79
2023/12/14 03:48:56;;;;;;;3.30;1.53;;;;;;;;;;5063512;28;20459;-80
2023/12/14 03:51:24;;;;;;;3.17;1.73;;;;;;;;;;5066248;28;20469;-80
2023/12/14 03:53:55;;;;;;;3.37;1.60;;;;;;;;;;5067273;28;20457;-80
2023/12/14 03:56:22;;;;;;;4.30;1.80;;;;;;;;;;5067605;28;20467;-81
2023/12/14 03:58:50;;;;;;;3.43;1.87;;;;;;;;;;5070217;28;20452;-80
2023/12/14 04:01:18;;;;;;;3.87;1.80;;;;;;;;;;5067888;28;20464;-79
2023/12/14 04:03:46;;;;;;;4.97;1.93;;;;;;;;;;5066579;28;20456;-80
2023/12/14 04:06:13;;;;;;;3.63;1.70;;;;;;;;;;5064795;28;20454;-80
2023/12/14 04:08:43;;;;;;;3.80;2.00;;;;;;;;;;5063026;28;20503;-80
2023/12/14 04:11:10;;;;;;;3.03;1.60;;;;;;;;;;5065655;28;20530;-79
2023/12/14 04:13:37;;;;;;;3.40;1.50;;;;;;;;;;5067043;28;20456;-80
2023/12/14 04:16:05;;;;;;;4.10;1.80;;;;;;;;;;5063671;28;20484;-79
2023/12/14 04:18:33;;;;;;;3.20;1.80;;;;;;;;;;5065034;28;20463;-79
2023/12/14 04:21:01;;;;;;;2.87;1.60;;;;;;;;;;5064603;28;20467;-80
2023/12/14 04:23:28;;;;;;;3.30;1.50;;;;;;;;;;5063828;28;20543;-78
2023/12/14 04:25:57;;;;;;;4.23;1.90;;;;;;;;;;5061909;28;20448;-80
2023/12/14 04:28:24;;;;;;;4.37;1.53;;;;;;;;;;5061948;28;20491;-80
2023/12/14 04:30:52;;;;;;;4.40;1.90;;;;;;;;;;5062175;28;20476;-80
2023/12/14 04:33:20;;;;;;;3.10;1.60;;;;;;;;;;5061639;28;20456;-81
2023/12/14 04:35:47;;;;;;;2.90;1.40;;;;;;;;;;5061206;28;20461;-80
2023/12/14 04:38:15;;;;;;;5.20;1.93;;;;;;;;;;5062160;28;20468;-79
2023/12/14 04:40:42;;;;;;;3.40;1.77;;;;;;;;;;5065348;28;20448;-80
2023/12/14 04:43:11;;;;;;;5.03;1.93;;;;;;;;;;5064896;28;20906;-81
2023/12/14 04:45:38;;;;;;;4.10;2.37;;;;;;;;;;5065137;28;20535;-80
2023/12/14 04:48:06;;;;;;;5.30;2.13;;;;;;;;;;5061222;28;20494;-79
2023/12/14 04:50:33;;;;;;;4.60;2.47;;;;;;;;;;5061372;28;20461;-79
2023/12/14 04:53:01;;;;;;;4.60;2.20;;;;;;;;;;5065559;28;21136;-79
2023/12/14 04:55:29;;;;;;;3.97;2.67;;;;;;;;;;5064418;28;20861;-80
2023/12/14 04:57:56;;;;;;;4.70;2.80;;;;;;;;;;5066690;28;20458;-80
2023/12/14 05:00:25;;;;;;;3.83;2.30;;;;;;;;;;5065025;28;20488;-79
2023/12/14 05:02:53;;;;;;;4.00;2.03;;;;;;;;;;5065900;28;20466;-80
2023/12/14 05:05:20;;;;;;;7.37;2.23;;;;;;;;;;5065630;28;20464;-79
2023/12/14 05:07:47;;;;;;;5.57;3.00;;;;;;;;;;5064521;28;20489;-79
2023/12/14 05:10:18;;;;;;;11.73;3.50;;;;;;;;;;5063327;28;20491;-79
2023/12/14 05:12:45;;;;;;;4.67;2.67;;;;;;;;;;5065436;28;20468;-80
2023/12/14 05:15:12;;;;;;;6.50;3.20;;;;;;;;;;5063437;28;20491;-79
2023/12/14 05:17:41;;;;;;;4.50;2.40;;;;;;;;;;5066027;28;20725;-79
2023/12/14 05:20:10;;;;;;;6.80;3.47;;;;;;;;;;5064109;28;20453;-78
2023/12/14 05:22:37;;;;;;;6.30;3.00;;;;;;;;;;5062104;28;20680;-78
2023/12/14 05:25:05;;;;;;;8.23;3.27;;;;;;;;;;5063268;28;20525;-80
2023/12/14 05:27:32;;;;;;;4.13;2.10;;;;;;;;;;5062967;28;20538;-79
2023/12/14 05:30:00;;;;;;;4.90;2.63;;;;;;;;;;5062420;28;20468;-79
2023/12/14 05:32:28;;;;;;;4.73;2.50;;;;;;;;;;5064283;28;20441;-81
2023/12/14 05:34:57;;;;;;;6.20;3.40;;;;;;;;;;5065087;28;20553;-80
2023/12/14 05:37:24;;;;;;;7.97;3.50;;;;;;;;;;5063155;28;20463;-79
2023/12/14 05:39:51;;;;;;;4.43;2.90;;;;;;;;;;5063811;28;20452;-81
2023/12/14 05:42:19;;;;;;;5.77;2.80;;;;;;;;;;5064110;28;20443;-80
2023/12/14 05:44:46;;;;;;;4.67;2.47;;;;;;;;;;5066009;28;20448;-82
2023/12/14 05:47:14;;;;;;;4.30;2.40;;;;;;;;;;5066029;28;20550;-80
2023/12/14 05:49:43;;;;;;;5.37;3.27;;;;;;;;;;5066472;28;20446;-80
2023/12/14 05:52:12;;;;;;;6.67;2.53;;;;;;;;;;5065446;28;20448;-80
2023/12/14 05:54:40;;;;;;;4.70;2.70;;;;;;;;;;5064793;28;20444;-79
2023/12/14 05:57:07;;;;;;;6.90;2.83;;;;;;;;;;5065057;28;20506;-78
2023/12/14 05:59:35;;;;;;;5.00;2.67;;;;;;;;;;5064745;28;20482;-81
2023/12/14 06:02:02;;;;;;;6.50;2.87;;;;;;;;;;5066308;28;20473;-80
2023/12/14 06:04:30;;;;;;;5.30;3.23;;;;;;;;;;5066323;28;20539;-80
2023/12/14 06:06:57;;;;;;;8.37;3.63;;;;;;;;;;5064422;28;20920;-81
2023/12/14 06:09:33;;;;;;;6.23;3.47;;;;;;;;;;5066062;28;20727;-79
2023/12/14 06:12:02;;;;;;;8.53;3.40;;;;;;;;;;5065569;28;20513;-79
2023/12/14 06:14:29;;;;;;;8.17;3.03;;;;;;;;;;5062668;28;20492;-79
2023/12/14 06:16:57;;;;;;;8.37;4.80;;;;;;;;;;5063009;28;20462;-79
2023/12/14 06:19:25;;;;;;;6.07;3.20;;;;;;;;;;5064949;28;20441;-78
2023/12/14 06:21:52;;;;;;;5.97;3.00;;;;;;;;;;5065806;28;20585;-80
2023/12/14 06:24:20;;;;;;;7.30;3.83;;;;;;;;;;5067446;28;20468;-80
2023/12/14 06:26:49;;;;;;;5.13;3.07;;;;;;;;;;5068956;28;20432;-79
2023/12/14 06:29:17;;;;;;;8.10;3.20;;;;;;;;;;5065882;28;20587;-79
2023/12/14 06:31:47;;;;;;;12.70;3.60;;;;;;;;;;5065341;28;20839;-80
2023/12/14 06:34:14;;;;;;;5.70;2.77;;;;;;;;;;5062502;28;20472;-79
2023/12/14 06:36:43;;;;;;;9.17;4.70;;;;;;;;;;5063211;28;20448;-78
2023/12/14 06:39:11;;;;;;;7.33;4.33;;;;;;;;;;5064434;28;20457;-80
2023/12/14 06:41:39;;;;;;;8.13;3.93;;;;;;;;;;5066783;28;20463;-78
2023/12/14 06:44:09;;;;;;;7.10;4.10;;;;;;;;;;5063898;28;20463;-80
2023/12/14 06:46:37;;;;;;;7.90;4.00;;;;;;;;;;5065704;28;20509;-79
2023/12/14 06:49:03;;;;;;;6.70;4.17;;;;;;;;;;5066534;28;20809;-81
2023/12/14 06:51:31;;;;;;;7.27;3.83;;;;;;;;;;5066215;28;20471;-80
2023/12/14 06:53:58;;;;;;;11.17;4.13;;;;;;;;;;5063330;28;20491;-81
2023/12/14 06:56:26;;;;;;;8.77;3.83;;;;;;;;;;5061018;28;20461;-79
2023/12/14 06:58:53;;;;;;;9.37;4.50;;;;;;;;;;5063112;28;20528;-81
2023/12/14 07:01:22;;;;;;;7.03;4.13;;;;;;;;;;5062629;28;20698;-79
2023/12/14 07:03:50;;;;;;;11.17;4.40;;;;;;;;;;5058822;28;20455;-79
2023/12/14 07:06:17;;;;;;;10.47;4.00;;;;;;;;;;5060668;28;20460;-80
2023/12/14 07:08:46;;;;;;;8.93;4.10;;;;;;;;;;5064103;28;20578;-81
2023/12/14 07:11:13;;;;;;;6.80;3.87;;;;;;;;;;5063270;28;20540;-81
2023/12/14 07:13:41;;;;;;;7.60;4.50;;;;;;;;;;5063778;28;20537;-79
2023/12/14 07:16:10;;;;;;;17.43;5.10;;;;;;;;;;5062766;28;20516;-79
2023/12/14 07:18:39;;;;;;;7.37;5.00;;;;;;;;;;5062427;28;20457;-80
2023/12/14 07:21:07;;;;;;;8.87;4.30;;;;;;;;;;5060886;28;20452;-79
2023/12/14 07:23:35;;;;;;;6.13;3.87;;;;;;;;;;5060580;28;20448;-80
2023/12/14 07:26:03;;;;;;;9.53;4.00;;;;;;;;;;5059527;28;20461;-79
2023/12/14 07:28:30;;;;;;;6.57;4.67;;;;;;;;;;5065768;28;20492;-79
2023/12/14 07:30:58;;;;;;;8.30;4.63;;;;;;;;;;5063446;28;20476;-80
2023/12/14 07:33:26;;;;;;;6.60;4.00;;;;;;;;;;5063587;28;20466;-79
2023/12/14 07:35:54;;;;;;;8.17;4.50;;;;;;;;;;5062354;28;20495;-80
2023/12/14 07:38:22;;;;;;;6.17;3.63;;;;;;;;;;5064432;28;20487;-79
2023/12/14 07:40:50;;;;;;;8.83;4.23;;;;;;;;;;5062421;28;20460;-80
2023/12/14 07:43:17;;;;;;;10.17;6.23;;;;;;;;;;5060422;28;20884;-80
2023/12/14 07:45:45;;;;;;;7.23;4.20;;;;;;;;;;5065419;28;20440;-81
2023/12/14 07:48:13;;;;;;;8.20;4.47;;;;;;;;;;5064765;28;20581;-79
2023/12/14 07:50:40;;;;;;;10.43;5.30;;;;;;;;;;5064299;28;20462;-80
2023/12/14 07:53:09;;;;;;;10.57;5.10;;;;;;;;;;5061137;28;20731;-80
2023/12/14 07:55:37;;;;;;;9.43;4.77;;;;;;;;;;5058512;28;20456;-80
2023/12/14 07:58:04;;;;;;;7.20;4.60;;;;;;;;;;5061608;28;20443;-79
2023/12/14 08:00:32;;;;;;;7.40;4.50;;;;;;;;;;5062404;28;20449;-79
2023/12/14 08:03:00;;;;;;;10.00;5.00;;;;;;;;;;5062468;28;20495;-80
2023/12/14 08:05:28;;;;;;;7.70;4.80;;;;;;;;;;5062151;28;20510;-80
2023/12/14 08:07:55;;;;;;;6.20;3.70;;;;;;;;;;5060029;28;20524;-80
2023/12/14 08:10:24;;;;;;;10.00;5.63;;;;;;;;;;5064354;28;20444;-80
2023/12/14 08:12:52;;;;;;;7.50;4.67;;;;;;;;;;5064681;28;20488;-79
2023/12/14 08:15:19;;;;;;;7.20;4.30;;;;;;;;;;5066627;28;20504;-80
2023/12/14 08:17:47;;;;;;;13.13;4.97;;;;;;;;;;5063383;28;20489;-79
2023/12/14 08:20:17;;;;;;;10.70;5.20;;;;;;;;;;5066100;28;20616;-78
2023/12/14 08:22:45;;;;;;;8.30;4.63;;;;;;;;;;5062852;28;20475;-78
2023/12/14 08:25:14;;;;;;;10.33;4.93;;;;;;;;;;5065688;28;20489;-79
2023/12/14 08:27:44;;;;;;;7.67;4.97;;;;;;;;;;5062175;28;20464;-79
2023/12/14 08:30:16;;;;;;;10.00;4.53;;;;;;;;;;5065016;28;20483;-80
2023/12/14 08:32:44;;;;;;;6.47;4.00;;;;;;;;;;5063930;28;20455;-79
2023/12/14 08:35:11;;;;;;;8.67;4.83;;;;;;;;;;5063748;28;20454;-78
2023/12/14 08:37:39;;;;;;;9.03;5.50;;;;;;;;;;5063038;28;20714;-78
2023/12/14 08:40:08;;;;;;;7.80;4.80;;;;;;;;;;5061728;28;20449;-81
2023/12/14 08:42:36;;;;;;;7.73;4.50;;;;;;;;;;5059447;28;20841;-79
2023/12/14 08:45:11;;;;;;;11.73;5.00;;;;;;;;;;5064286;28;20534;-80
2023/12/14 08:47:39;;;;;;;9.17;5.70;;;;;;;;;;5058918;28;20502;-80
2023/12/14 08:50:08;;;;;;;12.50;5.43;;;;;;;;;;5059426;28;20927;-79
2023/12/14 08:52:36;;;;;;;10.23;5.40;;;;;;;;;;5061768;28;20444;-79
2023/12/14 08:55:04;;;;;;;10.57;5.40;;;;;;;;;;5063507;28;20454;-78
2023/12/14 08:57:32;;;;;;;10.60;5.23;;;;;;;;;;5063022;28;20882;-79
2023/12/14 09:00:00;;;;;;;8.40;5.70;;;;;;;;;;5060557;28;20470;-79
2023/12/14 09:02:29;;;;;;;9.60;5.73;;;;;;;;;;5058559;28;20449;-79
2023/12/14 09:04:58;;;;;;;7.87;4.90;;;;;;;;;;5058900;28;20878;-79
2023/12/14 09:07:27;;;;;;;18.07;6.20;;;;;;;;;;5059086;28;20450;-78
2023/12/14 09:09:54;;;;;;;10.30;5.90;;;;;;;;;;5060659;28;20487;-77
2023/12/14 09:12:23;;;;;;;10.93;5.13;;;;;;;;;;5056722;28;20461;-79
2023/12/14 09:14:52;;;;;;;11.23;5.50;;;;;;;;;;5058659;28;20453;-80
2023/12/14 09:17:20;;;;;;;14.00;5.90;;;;;;;;;;5059692;28;20518;-79
2023/12/14 09:19:50;;;;;;;12.63;4.93;;;;;;;;;;5068180;28;20871;-82
2023/12/14 09:22:18;;;;;;;9.60;5.67;;;;;;;;;;5069194;28;20467;-78
2023/12/14 09:24:47;;;;;;;10.37;4.87;;;;;;;;;;5059718;28;20471;-79
2023/12/14 09:27:19;;;;;;;10.70;5.80;;;;;;;;;;5064326;28;20455;-79
2023/12/14 09:29:48;;;;;;;7.83;5.10;;;;;;;;;;5067458;28;20487;-79
2023/12/14 09:32:17;;;;;;;8.73;5.23;;;;;;;;;;5062376;28;20464;-80
2023/12/14 09:34:51;;;;;;;8.23;5.03;;;;;;;;;;5059948;28;20745;-79
2023/12/14 09:37:24;;;;;;;29.87;12.90;;;;;;;;;;5067643;28;20574;-78
2023/12/14 09:39:52;;;;;;;8.93;5.80;;;;;;;;;;5065629;28;20447;-79
2023/12/14 09:42:21;;;;;;;10.00;5.43;;;;;;;;;;5066431;28;20578;-79
2023/12/14 09:44:49;;;;;;;10.70;5.20;;;;;;;;;;5064360;28;21076;-79
2023/12/14 09:47:17;;;;;;;9.27;4.13;;;;;;;;;;5054224;28;20557;-80
2023/12/14 09:49:46;;;;;;;8.10;4.80;;;;;;;;;;5067808;28;20489;-80
2023/12/14 09:52:14;;;;;;;12.53;5.30;;;;;;;;;;5066338;28;20462;-80
2023/12/14 09:54:44;;;;;;;8.93;4.77;;;;;;;;;;5066333;28;20590;-80
2023/12/14 09:57:12;;;;;;;9.70;5.20;;;;;;;;;;5069617;28;20467;-79
2023/12/14 09:59:41;;;;;;;6.67;3.97;;;;;;;;;;5067228;28;20468;-79
2023/12/14 10:02:12;;;;;;;8.23;4.03;;;;;;;;;;5065605;28;20985;-80
2023/12/14 10:04:40;;;;;;;10.90;5.47;;;;;;;;;;5062540;28;20548;-81
2023/12/14 10:07:14;;;;;;;9.70;6.37;;;;;;;;;;5063673;28;20470;-79
2023/12/14 10:09:43;;;;;;;9.83;5.83;;;;;;;;;;5063000;28;20530;-80
2023/12/14 10:12:11;;;;;;;10.50;6.03;;;;;;;;;;5065434;28;20468;-80
2023/12/14 10:14:39;;;;;;;7.83;5.40;;;;;;;;;;5068178;28;20459;-79
2023/12/14 10:17:17;;;;;;;10.17;5.33;;;;;;;;;;5065780;28;20777;-79
2023/12/14 10:19:46;;;;;;;7.33;5.03;;;;;;;;;;5067923;28;20463;-79
2023/12/14 10:22:15;;;;;;;10.77;5.73;;;;;;;;;;5065849;28;20871;-80
2023/12/14 10:24:46;;;;;;;11.33;5.43;;;;;;;;;;5065318;28;20569;-80
2023/12/14 10:27:13;;;;;;;10.43;7.00;;;;;;;;;;5047674;28;20448;-80
2023/12/14 10:29:41;;;;;;;8.57;5.00;;;;;;;;;;5058093;28;20562;-79
2023/12/14 10:32:11;;;;;;;10.97;6.10;;;;;;;;;;5066714;28;20632;-80
2023/12/14 10:34:40;;;;;;;11.03;5.37;;;;;;;;;;5068933;28;20460;-79
2023/12/14 10:37:08;;;;;;;15.23;5.60;;;;;;;;;;5073511;28;20432;-79
2023/12/14 10:39:36;;;;;;;9.80;5.97;;;;;;;;;;5076078;28;20467;-80
2023/12/14 10:42:06;;;;;;;8.63;5.47;;;;;;;;;;5071077;28;20458;-80
2023/12/14 10:44:37;;;;;;;8.17;5.17;;;;;;;;;;5065004;28;20469;-80
2023/12/14 10:47:05;;;;;;;15.80;5.20;;;;;;;;;;5069155;28;20489;-80
2023/12/14 10:49:34;;;;;;;10.60;5.30;;;;;;;;;;5062160;28;20809;-80
2023/12/14 10:52:10;;;;;;;8.03;5.67;;;;;;;;;;5059528;28;20466;-79
2023/12/14 10:54:39;;;;;;;10.47;5.10;;;;;;;;;;5061280;28;20488;-79
2023/12/14 10:57:09;;;;;;;7.43;5.37;;;;;;;;;;5063146;28;20474;-79
2023/12/14 10:59:37;;;;;;;6.83;4.27;;;;;;;;;;5060540;28;20450;-77
2023/12/14 11:02:09;;;;;;;9.37;5.10;;;;;;;;;;5060514;28;20446;-78
2023/12/14 11:04:52;;;;;;;11.53;5.73;;;;;;;;;;5041583;28;20460;-78
2023/12/14 11:07:19;;;;;;;6.27;4.20;;;;;;;;;;5038719;28;20444;-79
2023/12/14 11:09:48;;;;;;;9.10;4.90;;;;;;;;;;5038089;28;20520;-77
2023/12/14 11:12:21;;;;;;;11.13;5.10;;;;;;;;;;5040627;28;20479;-78
2023/12/14 11:14:49;;;;;;;7.87;4.63;;;;;;;;;;5044545;28;20474;-78
2023/12/14 11:17:16;;;;;;;9.77;4.90;;;;;;;;;;5042051;28;20513;-77
2023/12/14 11:19:44;;;;;;;14.00;5.50;;;;;;;;;;5052964;28;20443;-78
2023/12/14 11:22:25;;;;;;;9.20;4.77;;;;;;;;;;5060202;28;20489;-77
2023/12/14 11:24:53;;;;;;;9.07;5.23;;;;;;;;;;5055209;28;20786;-78
2023/12/14 11:27:30;;;;;;;8.60;5.50;;;;;;;;;;5054604;28;21106;-78
2023/12/14 11:29:58;;;;;;;9.43;5.10;;;;;;;;;;5040923;28;20490;-78
2023/12/14 11:32:28;;;;;;;10.17;5.47;;;;;;;;;;5040688;28;20469;-77
2023/12/14 11:34:57;;;;;;;11.00;5.00;;;;;;;;;;5057157;28;20532;-78
2023/12/14 11:37:37;;;;;;;12.20;6.70;;;;;;;;;;5067056;28;20509;-77
2023/12/14 11:40:10;;;;;;;7.97;4.60;;;;;;;;;;5061370;28;20456;-77
2023/12/14 11:42:39;;;;;;;10.43;5.33;;;;;;;;;;5057604;28;20457;-77
2023/12/14 11:45:10;;;;;;;7.80;5.70;;;;;;;;;;5060495;28;20551;-78
2023/12/14 11:47:37;;;;;;;7.47;4.40;;;;;;;;;;5061807;28;20509;-77
2023/12/14 11:50:11;;;;;;;9.47;5.37;;;;;;;;;;5061085;28;20481;-79
2023/12/14 11:52:49;;;;;;;8.93;4.53;;;;;;;;;;5092762;22;20547;-76
2023/12/14 11:55:21;;;;;;;9.63;5.33;;;;;;;;;;5017097;28;20452;-77
2023/12/14 11:57:53;;;;;;;9.27;5.00;;;;;;;;;;5015747;28;20481;-77
2023/12/14 12:00:25;;;;;;;12.60;6.77;;;;;;;;;;5016569;28;20507;-77
2023/12/14 12:03:08;;;;;;;7.83;3.93;;;;;;;;;;5015393;28;20451;-77
2023/12/14 12:08:20;;;;;;;9.03;4.90;;;;;;;;;;5033045;28;20502;-76
2023/12/14 12:10:52;;;;;;;6.80;4.00;;;;;;;;;;5037289;28;20229;-77
2023/12/14 12:13:28;;;;;;;10.30;4.40;;;;;;;;;;5038068;28;20464;-77
2023/12/14 12:16:06;;;;;;;6.10;3.97;;;;;;;;;;5040240;28;20442;-78
2023/12/14 12:18:53;;;;;;;10.57;4.47;;;;;;;;;;5038386;28;20471;-77
2023/12/14 12:21:34;;;;;;;5.37;3.20;;;;;;;;;;5035874;28;20531;-77
2023/12/14 12:24:37;;;;;;;7.90;4.17;;;;;;;;;;5032915;28;20490;-77
2023/12/14 12:27:16;;;;;;;8.13;3.43;;;;;;;;;;5031260;28;20783;-76
2023/12/14 12:30:11;;;;;;;19.70;9.30;;;;;;;;;;5038174;28;20511;-77
2023/12/14 12:32:47;;;;;;;6.80;3.27;;;;;;;;;;5035696;28;20673;-77
2023/12/14 12:35:36;;;;;;;8.83;3.60;;;;;;;;;;5033626;28;20463;-78
2023/12/14 12:38:17;;;;;;;5.50;3.10;;;;;;;;;;4998469;28;20460;-77
2023/12/14 12:40:45;;;;;;;6.17;3.40;;;;;;;;;;5036626;28;20455;-76
2023/12/14 12:43:15;;;;;;;7.20;4.43;;;;;;;;;;5035797;28;20462;-76
2023/12/14 12:45:52;;;;;;;6.10;3.77;;;;;;;;;;5034030;28;20452;-74
2023/12/14 12:48:28;;;;;;;7.00;3.93;;;;;;;;;;5034132;28;20449;-75
2023/12/14 12:54:04;;;;;;;7.20;2.77;;;;;;;;;;5016685;28;20436;-77
2023/12/14 12:56:34;;;;;;;5.43;2.73;;;;;;;;;;5036631;28;20549;-75
2023/12/14 13:02:06;;;;;;;4.83;3.40;;;;;;;;;;5025869;28;20477;-77
2023/12/14 13:07:36;;;;;;;6.67;3.97;;;;;;;;;;5034630;28;20460;-77
2023/12/14 13:10:22;;;;;;;7.30;3.30;;;;;;;;;;5032364;28;20591;-77
2023/12/14 13:12:53;;;;;;;5.47;3.53;;;;;;;;;;5038125;28;20453;-77
2023/12/14 13:15:38;;;;;;;7.70;4.70;;;;;;;;;;5039409;28;20560;-76
2023/12/14 13:21:35;;;;;;;7.57;3.07;;;;;;;;;;4996988;28;20477;-77
2023/12/14 13:24:29;;;;;;;6.90;3.17;;;;;;;;;;5047085;28;20561;-76
2023/12/14 13:27:10;;;;;;;7.33;3.80;;;;;;;;;;5042242;28;20460;-78
2023/12/14 13:35:05;;;;;;;12.10;5.13;;;;;;;;;;5041486;28;20511;-77
2023/12/14 13:38:01;;;;;;;7.73;4.70;;;;;;;;;;5025292;28;20673;-76
2023/12/14 13:43:10;;;;;;;7.90;4.57;;;;;;;;;;1489740;26;20814;-78
2023/12/14 13:45:37;;;;;;;6.50;3.13;;;;;;;;;;5044293;28;20463;-77
2023/12/14 13:48:06;;;;;;;6.70;4.30;;;;;;;;;;5045032;28;20448;-78
2023/12/14 13:50:34;;;;;;;6.20;3.50;;;;;;;;;;5043059;28;20500;-78
2023/12/14 13:53:02;;;;;;;5.03;3.07;;;;;;;;;;5022828;28;20488;-78
2023/12/14 13:55:29;;;;;;;6.20;4.37;;;;;;;;;;5028200;28;20464;-78
2023/12/14 13:58:00;;;;;;;5.53;4.00;;;;;;;;;;5041276;28;20498;-79
2023/12/14 14:00:29;;;;;;;11.90;4.90;;;;;;;;;;5043362;28;20950;-78
2023/12/14 14:02:57;;;;;;;8.83;4.80;;;;;;;;;;5052849;28;20615;-79
2023/12/14 14:05:24;;;;;;;8.23;3.37;;;;;;;;;;5052703;28;20433;-79
2023/12/14 14:07:57;;;;;;;7.53;4.13;;;;;;;;;;5053359;28;20436;-79
2023/12/14 14:10:29;;;;;;;6.07;3.63;;;;;;;;;;5051579;28;20498;-79
2023/12/14 14:13:00;;;;;;;8.40;4.00;;;;;;;;;;5052699;28;20442;-80
2023/12/14 14:15:29;;;;;;;10.97;6.73;;;;;;;;;;5051076;28;20501;-80
2023/12/14 14:18:00;;;;;;;9.90;3.53;;;;;;;;;;5050758;28;20477;-78
2023/12/14 14:20:30;;;;;;;5.87;3.30;;;;;;;;;;5047667;28;20510;-80
2023/12/14 14:22:59;;;;;;;5.87;4.17;;;;;;;;;;5047904;28;20469;-80
2023/12/14 14:25:27;;;;;;;6.63;3.50;;;;;;;;;;5052848;28;20474;-79
2023/12/14 14:27:58;;;;;;;7.63;3.93;;;;;;;;;;5064389;28;20455;-79
2023/12/14 14:30:40;;;;;;;6.13;3.60;;;;;;;;;;5066669;28;20484;-79
2023/12/14 14:33:13;;;;;;;6.77;3.37;;;;;;;;;;5065887;28;20461;-79
2023/12/14 14:35:46;;;;;;;7.30;4.20;;;;;;;;;;5064027;28;20529;-79
2023/12/14 14:38:24;;;;;;;6.30;4.13;;;;;;;;;;5054448;28;20525;-78
2023/12/14 14:41:08;;;;;;;10.00;5.80;;;;;;;;;;5054914;28;20532;-80
2023/12/14 14:43:38;;;;;;;5.20;3.50;;;;;;;;;;5053714;28;20483;-80
2023/12/14 14:46:08;;;;;;;6.60;3.90;;;;;;;;;;5050059;28;20666;-78
2023/12/14 14:48:37;;;;;;;7.17;3.80;;;;;;;;;;5052876;28;20826;-80
2023/12/14 14:51:05;;;;;;;6.37;3.87;;;;;;;;;;5053237;28;20592;-79
2023/12/14 14:53:33;;;;;;;7.67;3.73;;;;;;;;;;5043415;28;20466;-78
2023/12/14 14:56:01;;;;;;;5.80;3.87;;;;;;;;;;5046748;28;20662;-79
2023/12/14 14:58:29;;;;;;;7.27;4.17;;;;;;;;;;5044439;28;20455;-79
2023/12/14 15:00:58;;;;;;;7.10;4.30;;;;;;;;;;5045656;28;20618;-79
2023/12/14 15:03:29;;;;;;;7.57;4.30;;;;;;;;;;5044426;28;20464;-79
2023/12/14 15:05:58;;;;;;;8.83;5.40;;;;;;;;;;5047580;28;20541;-79
2023/12/14 15:08:26;;;;;;;9.00;5.50;;;;;;;;;;5047913;28;20453;-78
2023/12/14 15:10:55;;;;;;;7.60;4.37;;;;;;;;;;5049894;28;20900;-78
2023/12/14 15:13:23;;;;;;;8.27;4.77;;;;;;;;;;5047792;28;20446;-77
2023/12/14 15:15:51;;;;;;;7.63;4.67;;;;;;;;;;5052374;28;20453;-78
2023/12/14 15:18:18;;;;;;;6.17;4.10;;;;;;;;;;5046250;28;21113;-77
2023/12/14 15:20:52;;;;;;;7.37;4.27;;;;;;;;;;5046378;28;20494;-78